Time;durP1;ratioP1;P1;durP2;ratioP2;P2;SDS_P1;SDS_P2;PMS_P1;PMS_P2;Temp;Humidity;BMP_temperature;BMP_pressure;BME280_temperature;BME280_humidity;BME280_pressure;Samples;Min_cycle;Max_cycle;Signal;HPM_P1;HPM_P2
2022/03/29 00:00:33;;;;;;;44.50;22.80;;;;;;;;;;4464143;32;20342;-53
2022/03/29 00:02:59;;;;;;;45.87;21.73;;;;;;;;;;4464014;32;20359;-52
2022/03/29 00:05:26;;;;;;;48.60;20.77;;;;;;;;;;4460558;32;20325;-53
2022/03/29 00:07:52;;;;;;;31.60;17.63;;;;;;;;;;4453269;32;20242;-52
2022/03/29 00:10:17;;;;;;;37.00;18.87;;;;;;;;;;4453262;32;20401;-53
2022/03/29 00:12:43;;;;;;;32.40;16.13;;;;;;;;;;4453953;32;20251;-53
2022/03/29 00:15:09;;;;;;;43.80;19.00;;;;;;;;;;4469056;32;20263;-53
2022/03/29 00:17:34;;;;;;;36.70;18.00;;;;;;;;;;4468927;32;20251;-52
2022/03/29 00:20:00;;;;;;;40.00;17.87;;;;;;;;;;4468829;32;20300;-52
2022/03/29 00:22:25;;;;;;;33.17;17.47;;;;;;;;;;4453344;32;20236;-52
2022/03/29 00:24:51;;;;;;;44.40;17.87;;;;;;;;;;4453303;32;20335;-52
2022/03/29 00:27:17;;;;;;;38.10;18.33;;;;;;;;;;4452771;32;20229;-53
2022/03/29 00:29:42;;;;;;;37.00;16.87;;;;;;;;;;4453348;32;20661;-53
2022/03/29 00:32:08;;;;;;;36.23;19.63;;;;;;;;;;4453191;32;20217;-53
2022/03/29 00:34:36;;;;;;;39.93;20.13;;;;;;;;;;4453087;32;20742;-52
2022/03/29 00:37:03;;;;;;;38.70;21.70;;;;;;;;;;4452901;32;20200;-53
2022/03/29 00:39:28;;;;;;;36.57;19.20;;;;;;;;;;4453327;32;20546;-52
2022/03/29 00:41:54;;;;;;;43.07;21.03;;;;;;;;;;4451643;32;20285;-52
2022/03/29 00:44:28;;;;;;;32.37;17.90;;;;;;;;;;4453601;32;20292;-52
2022/03/29 00:46:55;;;;;;;44.33;18.47;;;;;;;;;;4462292;32;20346;-52
2022/03/29 00:49:20;;;;;;;39.37;18.43;;;;;;;;;;4468746;32;20318;-52
2022/03/29 00:51:46;;;;;;;47.63;20.27;;;;;;;;;;4467268;32;20250;-52
2022/03/29 00:54:12;;;;;;;43.83;21.43;;;;;;;;;;4468984;32;20224;-51
2022/03/29 00:56:37;;;;;;;60.13;29.27;;;;;;;;;;4467638;32;20234;-53
2022/03/29 00:59:03;;;;;;;80.27;32.87;;;;;;;;;;4452935;32;20250;-54
2022/03/29 01:01:29;;;;;;;73.53;32.57;;;;;;;;;;4453044;32;20197;-52
2022/03/29 01:03:54;;;;;;;63.43;27.63;;;;;;;;;;4452959;32;20252;-53
2022/03/29 01:06:20;;;;;;;52.40;28.57;;;;;;;;;;4457677;32;20258;-52
2022/03/29 01:08:46;;;;;;;67.93;28.17;;;;;;;;;;4452792;32;20672;-52
2022/03/29 01:11:12;;;;;;;53.90;26.70;;;;;;;;;;4452788;32;20319;-52
2022/03/29 01:13:41;;;;;;;63.70;29.43;;;;;;;;;;4458162;32;20274;-52
2022/03/29 01:18:55;;;;;;;75.43;37.27;;;;;;;;;;4450592;32;20277;-52
2022/03/29 01:21:24;;;;;;;54.13;26.97;;;;;;;;;;4450267;32;20193;-53
2022/03/29 01:23:49;;;;;;;54.50;27.33;;;;;;;;;;4453374;32;20859;-52
2022/03/29 01:26:16;;;;;;;45.63;22.50;;;;;;;;;;4450194;32;20286;-52
2022/03/29 01:28:42;;;;;;;45.33;22.97;;;;;;;;;;4450364;32;20233;-51
2022/03/29 01:31:09;;;;;;;36.13;19.43;;;;;;;;;;4449984;32;20220;-52
2022/03/29 01:33:35;;;;;;;41.80;20.47;;;;;;;;;;4450387;32;20277;-52
2022/03/29 01:36:02;;;;;;;37.10;18.10;;;;;;;;;;4449946;32;20383;-52
2022/03/29 01:38:28;;;;;;;40.07;19.83;;;;;;;;;;4450312;32;20224;-52
2022/03/29 01:41:00;;;;;;;45.80;22.73;;;;;;;;;;4450585;32;20684;-54
2022/03/29 01:43:26;;;;;;;42.37;21.67;;;;;;;;;;4450357;32;20221;-52
2022/03/29 01:45:51;;;;;;;47.00;21.90;;;;;;;;;;4452386;32;20309;-52
2022/03/29 01:48:17;;;;;;;47.03;21.83;;;;;;;;;;4465727;32;20235;-52
2022/03/29 01:50:42;;;;;;;35.40;19.67;;;;;;;;;;4465618;32;20383;-52
2022/03/29 01:53:08;;;;;;;30.03;19.50;;;;;;;;;;4465696;32;20636;-52
2022/03/29 01:55:33;;;;;;;32.30;17.67;;;;;;;;;;4465611;32;20312;-53
2022/03/29 01:57:59;;;;;;;26.33;15.60;;;;;;;;;;4459614;32;20224;-52
2022/03/29 02:00:30;;;;;;;31.57;15.03;;;;;;;;;;4465450;32;20291;-52
2022/03/29 02:02:57;;;;;;;38.80;15.90;;;;;;;;;;4465359;32;20255;-52
2022/03/29 02:05:23;;;;;;;28.70;14.27;;;;;;;;;;4457262;32;20220;-52
2022/03/29 02:07:48;;;;;;;21.50;11.90;;;;;;;;;;4449666;32;20683;-52
2022/03/29 02:10:19;;;;;;;18.23;11.27;;;;;;;;;;4449726;32;20303;-53
2022/03/29 02:12:46;;;;;;;16.93;10.07;;;;;;;;;;4454641;32;20220;-53
2022/03/29 02:15:12;;;;;;;20.40;9.53;;;;;;;;;;4449418;32;20236;-52
2022/03/29 02:17:37;;;;;;;17.47;9.63;;;;;;;;;;4449539;32;20257;-52
2022/03/29 02:20:03;;;;;;;14.90;9.93;;;;;;;;;;4449012;32;20310;-52
2022/03/29 02:22:29;;;;;;;21.87;11.97;;;;;;;;;;4449203;32;20502;-52
2022/03/29 02:24:54;;;;;;;19.13;11.07;;;;;;;;;;4449473;32;20412;-53
2022/03/29 02:27:20;;;;;;;15.80;10.17;;;;;;;;;;4449403;32;20681;-52
2022/03/29 02:29:45;;;;;;;15.70;10.07;;;;;;;;;;4449318;32;20263;-53
2022/03/29 02:32:11;;;;;;;17.70;9.83;;;;;;;;;;4449184;32;20271;-53
2022/03/29 02:34:37;;;;;;;18.67;10.67;;;;;;;;;;4449234;32;20301;-53
2022/03/29 02:37:02;;;;;;;15.13;9.73;;;;;;;;;;4448765;32;20216;-52
2022/03/29 02:39:28;;;;;;;14.07;8.20;;;;;;;;;;4449398;32;20241;-53
2022/03/29 02:41:53;;;;;;;16.80;9.13;;;;;;;;;;4448925;32;20196;-51
2022/03/29 02:44:19;;;;;;;19.07;8.13;;;;;;;;;;4449338;32;20656;-52
2022/03/29 02:46:44;;;;;;;14.60;9.80;;;;;;;;;;4457219;32;20240;-53
2022/03/29 02:49:10;;;;;;;20.17;9.93;;;;;;;;;;4464729;32;20740;-53
2022/03/29 02:51:36;;;;;;;22.83;10.63;;;;;;;;;;4464521;32;20279;-52
2022/03/29 02:54:02;;;;;;;25.47;15.40;;;;;;;;;;4464835;32;20285;-51
2022/03/29 02:56:28;;;;;;;33.83;15.30;;;;;;;;;;4464403;32;20205;-51
2022/03/29 02:58:53;;;;;;;15.30;10.10;;;;;;;;;;4458888;32;20311;-53
2022/03/29 03:01:19;;;;;;;13.60;9.30;;;;;;;;;;4464249;32;20204;-53
2022/03/29 03:03:44;;;;;;;21.97;11.33;;;;;;;;;;4464312;32;20612;-52
2022/03/29 03:06:10;;;;;;;20.93;10.40;;;;;;;;;;4450237;32;20379;-53
2022/03/29 03:08:35;;;;;;;19.73;9.77;;;;;;;;;;4448894;32;20232;-52
2022/03/29 03:11:01;;;;;;;17.23;10.03;;;;;;;;;;4448452;32;20275;-52
2022/03/29 03:13:26;;;;;;;18.30;10.20;;;;;;;;;;4454401;32;20310;-53
2022/03/29 03:15:52;;;;;;;19.27;8.20;;;;;;;;;;4461562;32;20309;-53
2022/03/29 03:18:18;;;;;;;16.03;8.97;;;;;;;;;;4448581;32;20225;-52
2022/03/29 03:20:44;;;;;;;18.80;11.67;;;;;;;;;;4448640;32;20315;-53
2022/03/29 03:23:09;;;;;;;21.63;10.77;;;;;;;;;;4448404;32;20645;-54
2022/03/29 03:25:35;;;;;;;25.30;11.47;;;;;;;;;;4448610;32;20255;-53
2022/03/29 03:28:00;;;;;;;23.43;10.80;;;;;;;;;;4448605;32;20228;-52
2022/03/29 03:30:26;;;;;;;25.63;13.07;;;;;;;;;;4447776;32;20704;-52
2022/03/29 03:32:54;;;;;;;25.87;12.03;;;;;;;;;;4448134;32;20744;-52
2022/03/29 03:35:19;;;;;;;25.23;14.17;;;;;;;;;;4447281;32;20216;-53
2022/03/29 03:37:45;;;;;;;27.30;14.93;;;;;;;;;;4446963;32;20233;-55
2022/03/29 03:40:11;;;;;;;25.60;12.93;;;;;;;;;;4447849;32;20271;-54
2022/03/29 03:42:37;;;;;;;26.93;12.40;;;;;;;;;;4448409;32;20221;-55
2022/03/29 03:45:04;;;;;;;23.00;11.87;;;;;;;;;;4448220;32;20705;-53
2022/03/29 03:47:30;;;;;;;15.80;10.73;;;;;;;;;;4460900;32;20217;-52
2022/03/29 03:49:57;;;;;;;23.20;12.53;;;;;;;;;;4464214;32;20181;-52
2022/03/29 03:52:22;;;;;;;24.13;13.77;;;;;;;;;;4462562;32;20228;-53
2022/03/29 03:54:48;;;;;;;27.67;13.47;;;;;;;;;;4464060;32;20303;-53
2022/03/29 03:57:13;;;;;;;21.17;11.97;;;;;;;;;;4460287;32;20299;-52
2022/03/29 03:59:39;;;;;;;18.53;10.77;;;;;;;;;;4448294;32;20339;-52
2022/03/29 04:02:04;;;;;;;21.87;10.20;;;;;;;;;;4448253;32;20251;-52
2022/03/29 04:04:30;;;;;;;15.77;9.83;;;;;;;;;;4450505;32;20438;-51
2022/03/29 04:06:56;;;;;;;15.93;9.37;;;;;;;;;;4450723;32;20298;-52
2022/03/29 04:09:21;;;;;;;20.23;9.77;;;;;;;;;;4448139;32;20243;-53
2022/03/29 04:11:48;;;;;;;21.40;9.77;;;;;;;;;;4446343;32;20595;-52
2022/03/29 04:14:13;;;;;;;16.67;9.33;;;;;;;;;;4448369;32;20244;-53
2022/03/29 04:16:39;;;;;;;19.83;9.00;;;;;;;;;;4448218;32;20200;-52
2022/03/29 04:19:05;;;;;;;27.70;9.90;;;;;;;;;;4447951;32;20224;-52
2022/03/29 04:21:30;;;;;;;18.97;10.53;;;;;;;;;;4447723;32;20290;-51
2022/03/29 04:23:56;;;;;;;16.33;10.83;;;;;;;;;;4457335;32;20220;-52
2022/03/29 04:26:22;;;;;;;19.37;13.00;;;;;;;;;;4463595;32;20331;-53
2022/03/29 04:28:47;;;;;;;26.40;12.93;;;;;;;;;;4454539;32;20292;-52
2022/03/29 04:31:13;;;;;;;22.13;13.17;;;;;;;;;;4447887;32;20283;-52
2022/03/29 04:33:38;;;;;;;25.43;15.37;;;;;;;;;;4448154;32;20301;-53
2022/03/29 04:36:04;;;;;;;25.40;13.40;;;;;;;;;;4459781;32;20645;-51
2022/03/29 04:38:30;;;;;;;38.87;16.83;;;;;;;;;;4463228;32;20724;-53
2022/03/29 04:40:56;;;;;;;49.13;17.90;;;;;;;;;;4463163;32;20301;-51
2022/03/29 04:43:22;;;;;;;55.93;20.97;;;;;;;;;;4463292;32;20283;-52
2022/03/29 04:45:48;;;;;;;41.13;19.87;;;;;;;;;;4460778;32;20813;-54
2022/03/29 04:48:14;;;;;;;43.70;20.13;;;;;;;;;;4447625;32;20267;-53
2022/03/29 04:50:40;;;;;;;37.80;22.43;;;;;;;;;;4447868;32;20263;-56
2022/03/29 04:53:07;;;;;;;41.40;23.10;;;;;;;;;;4450330;32;20296;-53
2022/03/29 04:55:32;;;;;;;56.47;22.40;;;;;;;;;;4449992;32;20725;-52
2022/03/29 04:58:00;;;;;;;49.70;22.60;;;;;;;;;;4455654;32;20239;-52
2022/03/29 05:00:26;;;;;;;43.17;21.80;;;;;;;;;;4465813;32;20212;-52
2022/03/29 05:02:52;;;;;;;35.57;20.43;;;;;;;;;;4455204;32;20331;-52
2022/03/29 05:05:17;;;;;;;43.87;21.20;;;;;;;;;;4454361;32;20748;-54
2022/03/29 05:07:43;;;;;;;40.90;20.83;;;;;;;;;;4448991;32;20284;-51
2022/03/29 05:10:10;;;;;;;49.53;21.40;;;;;;;;;;4449030;32;20466;-53
2022/03/29 05:12:42;;;;;;;60.23;24.47;;;;;;;;;;4454988;32;20318;-53
2022/03/29 05:15:08;;;;;;;51.47;20.97;;;;;;;;;;4449463;32;20253;-53
2022/03/29 05:17:35;;;;;;;37.60;18.57;;;;;;;;;;4449487;32;20224;-53
2022/03/29 05:20:02;;;;;;;42.60;20.53;;;;;;;;;;4449571;32;20283;-53
2022/03/29 05:22:27;;;;;;;40.60;20.13;;;;;;;;;;4449230;32;20722;-52
2022/03/29 05:24:53;;;;;;;39.83;20.47;;;;;;;;;;4449429;32;20275;-53
2022/03/29 05:27:18;;;;;;;51.20;24.07;;;;;;;;;;4450424;32;20188;-53
2022/03/29 05:29:44;;;;;;;51.27;25.20;;;;;;;;;;4449032;32;20267;-53
2022/03/29 05:32:10;;;;;;;60.37;26.47;;;;;;;;;;4460354;32;20435;-53
2022/03/29 05:34:36;;;;;;;39.80;20.17;;;;;;;;;;4465282;32;20267;-54
2022/03/29 05:37:02;;;;;;;28.17;15.10;;;;;;;;;;4464678;32;20253;-52
2022/03/29 05:39:27;;;;;;;42.63;20.40;;;;;;;;;;4464973;32;20281;-53
2022/03/29 05:41:52;;;;;;;31.97;18.60;;;;;;;;;;4463135;32;20231;-53
2022/03/29 05:44:18;;;;;;;40.43;16.47;;;;;;;;;;4448769;32;20236;-52
2022/03/29 05:49:28;;;;;;;45.60;23.23;;;;;;;;;;4449660;32;20242;-52
2022/03/29 05:51:54;;;;;;;62.23;27.27;;;;;;;;;;4448682;32;20332;-52
2022/03/29 05:54:19;;;;;;;51.23;30.40;;;;;;;;;;4448472;32;20372;-53
2022/03/29 05:56:45;;;;;;;70.93;33.83;;;;;;;;;;4445886;32;20259;-53
2022/03/29 05:59:10;;;;;;;62.33;29.90;;;;;;;;;;4460223;32;20247;-52
2022/03/29 06:01:38;;;;;;;48.70;26.97;;;;;;;;;;4459968;32;20325;-54
2022/03/29 06:04:06;;;;;;;59.37;26.97;;;;;;;;;;4446894;32;20268;-52
2022/03/29 06:06:34;;;;;;;43.47;24.03;;;;;;;;;;4446809;32;20250;-52
2022/03/29 06:09:00;;;;;;;52.23;26.53;;;;;;;;;;4446407;32;20224;-53
2022/03/29 06:11:25;;;;;;;27.67;19.33;;;;;;;;;;4448128;32;20700;-52
2022/03/29 06:13:51;;;;;;;33.73;15.33;;;;;;;;;;4448396;32;20316;-53
2022/03/29 06:16:16;;;;;;;38.33;15.30;;;;;;;;;;4448845;32;20201;-52
2022/03/29 06:18:42;;;;;;;35.33;14.77;;;;;;;;;;4448629;32;20220;-52
2022/03/29 06:21:07;;;;;;;33.30;13.83;;;;;;;;;;4448438;32;20421;-53
2022/03/29 06:23:34;;;;;;;19.73;12.13;;;;;;;;;;4448733;32;20256;-53
2022/03/29 06:25:59;;;;;;;27.13;12.20;;;;;;;;;;4448248;32;20580;-53
2022/03/29 06:28:25;;;;;;;21.20;12.67;;;;;;;;;;4448621;32;20228;-53
2022/03/29 06:30:51;;;;;;;26.47;14.80;;;;;;;;;;4450792;32;20287;-54
2022/03/29 06:33:16;;;;;;;32.97;16.23;;;;;;;;;;4464053;32;20247;-53
2022/03/29 06:35:42;;;;;;;33.13;17.13;;;;;;;;;;4464565;32;20335;-55
2022/03/29 06:38:08;;;;;;;31.80;17.20;;;;;;;;;;4460533;32;20232;-53
2022/03/29 06:40:34;;;;;;;44.27;19.10;;;;;;;;;;4446436;32;20766;-54
2022/03/29 06:43:01;;;;;;;31.07;19.27;;;;;;;;;;4446743;32;20349;-53
2022/03/29 06:45:27;;;;;;;35.33;18.80;;;;;;;;;;4446646;32;20240;-53
2022/03/29 06:47:54;;;;;;;38.10;18.73;;;;;;;;;;4446143;32;20554;-54
2022/03/29 06:50:19;;;;;;;39.67;22.40;;;;;;;;;;4446050;32;20343;-53
2022/03/29 06:52:46;;;;;;;33.87;20.67;;;;;;;;;;4446034;32;20629;-52
2022/03/29 06:55:15;;;;;;;38.73;18.97;;;;;;;;;;4445826;32;20237;-53
2022/03/29 06:57:40;;;;;;;32.90;18.60;;;;;;;;;;4451983;32;20818;-54
2022/03/29 07:00:09;;;;;;;27.33;14.90;;;;;;;;;;4461782;32;20271;-58
2022/03/29 07:02:35;;;;;;;26.10;14.07;;;;;;;;;;4457107;32;20224;-54
2022/03/29 07:05:01;;;;;;;25.87;14.03;;;;;;;;;;4453506;32;20314;-53
2022/03/29 07:07:26;;;;;;;18.83;10.63;;;;;;;;;;4448809;32;20652;-53
2022/03/29 07:12:56;;;;;;;19.70;11.60;;;;;;;;;;4457297;32;20634;-53
2022/03/29 07:15:23;;;;;;;17.37;11.33;;;;;;;;;;4447188;32;20247;-54
2022/03/29 07:17:49;;;;;;;18.60;11.10;;;;;;;;;;4452652;32;20652;-53
2022/03/29 07:20:19;;;;;;;21.57;11.10;;;;;;;;;;4463300;32;20255;-55
2022/03/29 07:22:45;;;;;;;18.20;11.60;;;;;;;;;;4462931;32;20280;-53
2022/03/29 07:25:11;;;;;;;20.73;11.37;;;;;;;;;;4457116;32;20691;-54
2022/03/29 07:27:36;;;;;;;24.03;11.83;;;;;;;;;;4453146;32;20801;-54
2022/03/29 07:30:04;;;;;;;26.07;11.47;;;;;;;;;;4459385;32;20580;-55
2022/03/29 07:32:29;;;;;;;18.37;11.10;;;;;;;;;;4461866;32;20422;-56
2022/03/29 07:34:55;;;;;;;25.77;13.07;;;;;;;;;;4448064;32;20731;-54
2022/03/29 07:37:21;;;;;;;30.17;12.17;;;;;;;;;;4447373;32;20338;-53
2022/03/29 07:39:48;;;;;;;29.30;12.07;;;;;;;;;;4447476;32;20340;-56
2022/03/29 07:42:14;;;;;;;27.33;12.60;;;;;;;;;;4447135;32;20306;-52
2022/03/29 07:44:39;;;;;;;21.33;12.87;;;;;;;;;;4447455;32;20268;-54
2022/03/29 07:47:04;;;;;;;28.00;12.43;;;;;;;;;;4446975;32;20268;-53
2022/03/29 07:49:30;;;;;;;22.97;12.40;;;;;;;;;;4447419;32;20364;-53
2022/03/29 07:51:56;;;;;;;28.90;12.60;;;;;;;;;;4447594;32;20317;-53
2022/03/29 07:54:22;;;;;;;22.23;12.70;;;;;;;;;;4447613;32;20217;-53
2022/03/29 07:56:47;;;;;;;28.70;12.00;;;;;;;;;;4447570;32;20275;-53
2022/03/29 07:59:13;;;;;;;27.63;11.40;;;;;;;;;;4450586;32;20650;-54
2022/03/29 08:01:39;;;;;;;19.67;11.60;;;;;;;;;;4446821;32;20204;-52
2022/03/29 08:04:04;;;;;;;26.83;10.53;;;;;;;;;;4447028;32;20552;-54
2022/03/29 08:06:30;;;;;;;16.47;8.57;;;;;;;;;;4451744;32;20303;-53
2022/03/29 08:08:56;;;;;;;23.10;10.30;;;;;;;;;;4447065;32;20244;-55
2022/03/29 08:11:22;;;;;;;16.93;9.00;;;;;;;;;;4446958;32;20224;-55
2022/03/29 08:13:49;;;;;;;15.17;7.70;;;;;;;;;;4446812;32;20622;-55
2022/03/29 08:16:15;;;;;;;18.80;9.67;;;;;;;;;;4447517;32;20271;-55
2022/03/29 08:18:40;;;;;;;14.33;7.57;;;;;;;;;;4447981;32;20631;-54
2022/03/29 08:21:47;;;;;;;16.73;7.97;;;;;;;;;;4447657;32;20272;-54
2022/03/29 08:23:52;;;;;;;18.43;9.50;;;;;;;;;;4447903;32;20400;-53
2022/03/29 08:26:18;;;;;;;20.27;9.47;;;;;;;;;;4450107;32;20240;-54
2022/03/29 08:28:43;;;;;;;23.30;11.27;;;;;;;;;;4451073;32;20246;-54
2022/03/29 08:31:09;;;;;;;20.20;9.93;;;;;;;;;;4450434;32;20263;-53
2022/03/29 08:33:34;;;;;;;19.98;9.18;;;;;;;;;;4459487;32;20259;-56
2022/03/29 08:36:00;;;;;;;18.07;9.50;;;;;;;;;;4464863;32;20348;-55
2022/03/29 08:38:27;;;;;;;16.20;7.67;;;;;;;;;;4464916;32;20320;-54
2022/03/29 08:40:58;;;;;;;22.20;9.20;;;;;;;;;;4466468;32;20231;-54
2022/03/29 08:43:27;;;;;;;19.27;9.40;;;;;;;;;;4464760;32;20224;-54
2022/03/29 08:45:53;;;;;;;12.40;7.90;;;;;;;;;;4465862;32;20223;-55
2022/03/29 08:48:23;;;;;;;31.00;10.90;;;;;;;;;;4465811;32;20585;-55
2022/03/29 08:50:51;;;;;;;20.70;8.37;;;;;;;;;;4465605;32;20184;-54
2022/03/29 08:53:17;;;;;;;15.80;7.47;;;;;;;;;;4465633;32;20212;-55
2022/03/29 08:55:44;;;;;;;17.20;7.13;;;;;;;;;;4466302;32;20485;-55
2022/03/29 08:58:11;;;;;;;28.07;7.30;;;;;;;;;;4455356;32;20317;-54
2022/03/29 09:00:36;;;;;;;13.85;7.22;;;;;;;;;;4464322;32;20236;-54
2022/03/29 09:03:01;;;;;;;24.65;6.85;;;;;;;;;;4465523;32;20263;-53
2022/03/29 09:05:29;;;;;;;8.63;6.00;;;;;;;;;;4457441;32;20342;-53
2022/03/29 09:07:59;;;;;;;15.85;7.47;;;;;;;;;;4449991;32;20327;-54
2022/03/29 09:10:48;;;;;;;20.03;7.83;;;;;;;;;;4448756;32;20362;-53
2022/03/29 09:13:24;;;;;;;17.58;7.68;;;;;;;;;;4460712;32;20216;-53
2022/03/29 09:15:52;;;;;;;17.35;6.57;;;;;;;;;;4465938;32;20255;-53
2022/03/29 09:18:18;;;;;;;10.02;7.03;;;;;;;;;;4465499;32;20258;-52
2022/03/29 09:20:45;;;;;;;13.80;7.82;;;;;;;;;;4465487;32;20267;-53
2022/03/29 09:23:20;;;;;;;14.35;7.60;;;;;;;;;;4465024;32;20287;-52
2022/03/29 09:25:47;;;;;;;14.70;7.20;;;;;;;;;;4457026;32;20327;-55
2022/03/29 09:28:18;;;;;;;24.20;7.72;;;;;;;;;;4449877;32;20220;-54
2022/03/29 09:30:46;;;;;;;11.57;7.43;;;;;;;;;;4449708;32;20267;-53
2022/03/29 09:33:16;;;;;;;10.93;6.53;;;;;;;;;;4449443;32;20272;-53
2022/03/29 09:35:53;;;;;;;16.20;7.10;;;;;;;;;;4449361;32;20260;-55
2022/03/29 09:38:30;;;;;;;20.20;6.32;;;;;;;;;;4449083;32;20232;-54
2022/03/29 09:40:58;;;;;;;15.00;6.55;;;;;;;;;;4449378;32;20184;-54
2022/03/29 09:43:25;;;;;;;24.85;7.32;;;;;;;;;;4448964;32;20285;-54
2022/03/29 09:45:53;;;;;;;14.98;7.65;;;;;;;;;;4447855;32;20271;-53
2022/03/29 09:48:23;;;;;;;11.18;5.60;;;;;;;;;;4448185;32;20244;-54
2022/03/29 09:50:51;;;;;;;15.15;5.68;;;;;;;;;;4449325;32;20248;-54
2022/03/29 09:53:33;;;;;;;11.48;5.10;;;;;;;;;;4449383;32;20225;-54
2022/03/29 09:55:59;;;;;;;11.05;5.47;;;;;;;;;;4449426;32;20200;-53
2022/03/29 09:58:25;;;;;;;11.65;5.65;;;;;;;;;;4454291;32;20784;-56
2022/03/29 10:00:50;;;;;;;17.37;5.40;;;;;;;;;;4463334;32;20326;-53
2022/03/29 10:03:17;;;;;;;11.93;5.70;;;;;;;;;;4461775;32;20243;-52
2022/03/29 10:05:46;;;;;;;9.27;5.47;;;;;;;;;;4450641;32;20220;-52
2022/03/29 10:11:02;;;;;;;9.40;5.50;;;;;;;;;;4446053;32;20339;-53
2022/03/29 10:13:28;;;;;;;9.82;5.55;;;;;;;;;;4446380;32;20259;-55
2022/03/29 10:15:55;;;;;;;12.93;4.80;;;;;;;;;;4449538;32;20218;-54
2022/03/29 10:18:23;;;;;;;13.32;5.47;;;;;;;;;;4449904;32;20466;-53
2022/03/29 10:20:49;;;;;;;19.35;5.30;;;;;;;;;;4449316;32;20593;-53
2022/03/29 10:23:18;;;;;;;13.98;5.45;;;;;;;;;;4449811;32;20316;-53
2022/03/29 10:25:44;;;;;;;12.85;6.03;;;;;;;;;;4449691;32;20228;-53
2022/03/29 10:28:10;;;;;;;8.50;4.65;;;;;;;;;;4449387;32;20441;-53
2022/03/29 10:30:41;;;;;;;7.05;5.15;;;;;;;;;;4448993;32;20259;-54
2022/03/29 10:33:24;;;;;;;10.73;5.25;;;;;;;;;;4448411;32;20346;-53
2022/03/29 10:36:10;;;;;;;10.50;5.57;;;;;;;;;;4447536;32;20220;-54
2022/03/29 10:38:48;;;;;;;18.25;6.25;;;;;;;;;;4447788;32;20217;-53
2022/03/29 10:41:25;;;;;;;13.65;6.87;;;;;;;;;;4448171;32;20291;-54
2022/03/29 10:43:52;;;;;;;11.98;6.45;;;;;;;;;;4448812;32;20233;-53
2022/03/29 10:46:24;;;;;;;18.37;7.32;;;;;;;;;;4449135;32;20212;-53
2022/03/29 10:49:17;;;;;;;11.88;6.45;;;;;;;;;;4448988;32;20392;-54
2022/03/29 10:51:42;;;;;;;13.48;6.12;;;;;;;;;;4448532;32;20196;-53
2022/03/29 10:54:29;;;;;;;20.27;7.07;;;;;;;;;;4448461;32;20216;-52
2022/03/29 10:57:01;;;;;;;17.55;6.60;;;;;;;;;;4450014;32;20184;-53
2022/03/29 10:59:29;;;;;;;18.35;6.12;;;;;;;;;;4457391;32;20290;-53
2022/03/29 11:02:08;;;;;;;15.98;6.97;;;;;;;;;;4448926;32;20212;-53
2022/03/29 11:04:33;;;;;;;11.07;6.87;;;;;;;;;;4450584;32;20240;-53
2022/03/29 11:07:05;;;;;;;17.02;5.93;;;;;;;;;;4450283;32;20280;-52
2022/03/29 11:09:33;;;;;;;18.20;6.57;;;;;;;;;;4448236;32;20292;-54
2022/03/29 11:11:58;;;;;;;11.20;6.25;;;;;;;;;;4448538;32;20220;-53
2022/03/29 11:14:37;;;;;;;13.13;5.95;;;;;;;;;;4448902;32;20273;-53
2022/03/29 11:17:09;;;;;;;11.55;6.22;;;;;;;;;;4447701;32;20271;-52
2022/03/29 11:19:46;;;;;;;23.85;6.78;;;;;;;;;;4448016;32;20276;-52
2022/03/29 11:22:29;;;;;;;22.48;7.05;;;;;;;;;;4447131;32;20208;-51
2022/03/29 11:24:59;;;;;;;17.08;7.18;;;;;;;;;;4447445;32;20363;-52
2022/03/29 11:27:32;;;;;;;18.75;7.87;;;;;;;;;;4447439;32;20212;-53
2022/03/29 11:29:59;;;;;;;16.90;7.72;;;;;;;;;;4447382;32;20231;-52
2022/03/29 11:32:24;;;;;;;26.17;7.57;;;;;;;;;;4447447;32;20271;-52
2022/03/29 11:34:55;;;;;;;19.83;8.00;;;;;;;;;;4464165;32;20305;-52
2022/03/29 11:37:31;;;;;;;15.82;6.87;;;;;;;;;;4463580;32;20647;-52
2022/03/29 11:39:59;;;;;;;16.35;8.23;;;;;;;;;;4464757;32;20215;-51
2022/03/29 11:42:50;;;;;;;15.85;8.25;;;;;;;;;;4464336;32;20204;-53
2022/03/29 11:45:17;;;;;;;10.40;7.18;;;;;;;;;;4459343;32;20286;-52
2022/03/29 11:47:53;;;;;;;12.95;7.82;;;;;;;;;;4447594;32;20544;-52
2022/03/29 11:50:39;;;;;;;13.85;6.87;;;;;;;;;;4447269;32;20383;-54
2022/03/29 11:53:23;;;;;;;23.92;8.63;;;;;;;;;;4448977;32;20652;-53
2022/03/29 11:56:18;;;;;;;11.63;7.40;;;;;;;;;;4448441;32;20249;-52
2022/03/29 11:58:51;;;;;;;18.27;7.50;;;;;;;;;;4445668;32;20267;-52
2022/03/29 12:01:21;;;;;;;10.65;5.85;;;;;;;;;;4464052;32;20307;-51
2022/03/29 12:03:51;;;;;;;17.05;7.43;;;;;;;;;;4464060;32;20315;-53
2022/03/29 12:06:18;;;;;;;14.53;8.30;;;;;;;;;;4454417;32;20592;-53
2022/03/29 12:08:51;;;;;;;18.73;9.65;;;;;;;;;;4448212;32;20660;-52
2022/03/29 12:11:23;;;;;;;21.30;8.05;;;;;;;;;;4448310;32;20362;-51
2022/03/29 12:14:10;;;;;;;11.82;6.82;;;;;;;;;;4448199;32;20284;-51
2022/03/29 12:16:38;;;;;;;13.38;6.62;;;;;;;;;;4447941;32;20682;-53
2022/03/29 12:19:12;;;;;;;26.80;7.37;;;;;;;;;;4448546;32;20520;-53
2022/03/29 12:21:38;;;;;;;14.18;7.65;;;;;;;;;;4447952;32;20236;-52
2022/03/29 12:24:07;;;;;;;18.98;6.82;;;;;;;;;;4448408;32;20574;-54
2022/03/29 12:26:35;;;;;;;15.95;7.43;;;;;;;;;;4447952;32;20227;-53
2022/03/29 12:29:01;;;;;;;14.50;6.87;;;;;;;;;;4448300;32;20295;-53
2022/03/29 12:31:28;;;;;;;16.77;6.90;;;;;;;;;;4446644;32;20252;-53
2022/03/29 12:33:55;;;;;;;20.12;8.65;;;;;;;;;;4446979;32;20657;-53
2022/03/29 12:36:21;;;;;;;15.95;7.18;;;;;;;;;;4447984;32;20267;-51
2022/03/29 12:39:04;;;;;;;15.15;7.50;;;;;;;;;;4448091;32;20262;-52
2022/03/29 12:41:37;;;;;;;16.67;7.80;;;;;;;;;;4448011;32;20209;-51
2022/03/29 12:44:09;;;;;;;15.13;7.30;;;;;;;;;;4448198;32;20232;-52
2022/03/29 12:46:35;;;;;;;16.67;7.68;;;;;;;;;;4449645;32;20189;-53
2022/03/29 12:49:01;;;;;;;12.13;7.87;;;;;;;;;;4463571;32;20298;-52
2022/03/29 12:51:35;;;;;;;13.35;8.63;;;;;;;;;;4462034;32;20271;-51
2022/03/29 12:54:03;;;;;;;18.75;9.52;;;;;;;;;;4455259;32;20367;-52
2022/03/29 12:56:32;;;;;;;14.10;7.53;;;;;;;;;;4448332;32;20680;-52
2022/03/29 12:58:58;;;;;;;12.95;8.00;;;;;;;;;;4451580;32;20223;-53
2022/03/29 13:01:27;;;;;;;19.15;9.25;;;;;;;;;;4463579;32;20628;-52
2022/03/29 13:03:52;;;;;;;19.12;9.75;;;;;;;;;;4463945;32;20224;-54
2022/03/29 13:06:17;;;;;;;16.10;10.40;;;;;;;;;;4449388;32;20231;-52
2022/03/29 13:08:43;;;;;;;16.67;9.57;;;;;;;;;;4448277;32;20220;-53
2022/03/29 13:11:20;;;;;;;18.87;9.40;;;;;;;;;;4447657;32;20289;-52
2022/03/29 13:14:06;;;;;;;22.50;8.88;;;;;;;;;;4461252;32;20290;-52
2022/03/29 13:16:32;;;;;;;17.35;8.77;;;;;;;;;;4449618;32;20216;-52
2022/03/29 13:18:57;;;;;;;18.37;8.80;;;;;;;;;;4450982;32;20278;-53
2022/03/29 13:21:28;;;;;;;15.40;8.55;;;;;;;;;;4450315;32;20235;-52
2022/03/29 13:24:14;;;;;;;12.90;7.60;;;;;;;;;;4451055;32;20235;-52
2022/03/29 13:26:41;;;;;;;13.65;8.15;;;;;;;;;;4450302;32;20217;-53
2022/03/29 13:29:09;;;;;;;19.80;10.35;;;;;;;;;;4450718;32;20274;-52
2022/03/29 13:31:36;;;;;;;20.80;9.40;;;;;;;;;;4450701;32;20232;-54
2022/03/29 13:34:04;;;;;;;14.98;8.35;;;;;;;;;;4462338;32;20244;-52
2022/03/29 13:36:29;;;;;;;15.20;8.85;;;;;;;;;;4465826;32;20235;-52
2022/03/29 13:38:57;;;;;;;17.08;8.55;;;;;;;;;;4453928;32;20255;-52
2022/03/29 13:41:23;;;;;;;19.30;9.33;;;;;;;;;;4450561;32;20515;-52
2022/03/29 13:43:50;;;;;;;16.42;8.02;;;;;;;;;;4450150;32;20705;-52
2022/03/29 13:46:15;;;;;;;15.38;8.25;;;;;;;;;;4450097;32;20201;-51
2022/03/29 13:48:42;;;;;;;16.27;9.52;;;;;;;;;;4450647;32;20316;-52
2022/03/29 13:51:14;;;;;;;16.65;9.77;;;;;;;;;;4449713;32;20224;-52
2022/03/29 13:53:40;;;;;;;15.38;9.57;;;;;;;;;;4450956;32;20298;-52
2022/03/29 13:56:06;;;;;;;18.65;10.68;;;;;;;;;;4450252;32;20605;-51
2022/03/29 13:58:31;;;;;;;14.43;8.52;;;;;;;;;;4451175;32;20254;-52
2022/03/29 14:00:59;;;;;;;12.48;7.45;;;;;;;;;;4465693;32;20271;-52
2022/03/29 14:03:25;;;;;;;15.75;6.80;;;;;;;;;;4466133;32;20236;-53
2022/03/29 14:05:50;;;;;;;24.55;7.87;;;;;;;;;;4454568;32;20794;-53
2022/03/29 14:08:16;;;;;;;23.80;11.15;;;;;;;;;;4449789;32;20307;-55
2022/03/29 14:10:42;;;;;;;25.27;9.90;;;;;;;;;;4449445;32;20287;-52
2022/03/29 14:13:09;;;;;;;24.33;9.80;;;;;;;;;;4459562;32;20220;-54
2022/03/29 14:15:37;;;;;;;25.90;10.68;;;;;;;;;;4465138;32;20200;-53
2022/03/29 14:18:07;;;;;;;15.90;8.20;;;;;;;;;;4465300;32;20223;-52
2022/03/29 14:20:40;;;;;;;16.00;10.23;;;;;;;;;;4465495;32;20590;-53
2022/03/29 14:23:07;;;;;;;15.60;9.55;;;;;;;;;;4465194;32;20656;-53
2022/03/29 14:25:36;;;;;;;24.60;11.93;;;;;;;;;;4458035;32;20239;-53
2022/03/29 14:28:03;;;;;;;14.77;7.45;;;;;;;;;;4449861;32;20286;-53
2022/03/29 14:30:29;;;;;;;20.05;8.40;;;;;;;;;;4449907;32;20219;-53
2022/03/29 14:32:55;;;;;;;17.23;8.27;;;;;;;;;;4449676;32;20236;-54
2022/03/29 14:35:21;;;;;;;26.05;12.35;;;;;;;;;;4449303;32;20379;-55
2022/03/29 14:37:46;;;;;;;14.65;7.57;;;;;;;;;;4449742;32;20295;-53